Time;durP1;ratioP1;P1;durP2;ratioP2;P2;SDS_P1;SDS_P2;PMS_P1;PMS_P2;Temp;Humidity;BMP_temperature;BMP_pressure;BME280_temperature;BME280_humidity;BME280_pressure;Samples;Min_cycle;Max_cycle;Signal;HPM_P1;HPM_P2
2021/12/08 00:01:02;;;;;;;37.57;21.23;;;1.80;99.90;;;;;;5116983;28;20765;-70
2021/12/08 00:03:30;;;;;;;37.07;20.97;;;1.80;99.90;;;;;;5116700;28;20461;-70
2021/12/08 00:05:57;;;;;;;41.33;21.70;;;1.70;99.90;;;;;;5116647;28;20460;-70
2021/12/08 00:08:27;;;;;;;48.87;23.77;;;1.70;99.90;;;;;;5117120;28;20467;-70
2021/12/08 00:13:40;;;;;;;42.57;22.10;;;1.70;99.90;;;;;;5117023;28;20428;-70
2021/12/08 00:16:10;;;;;;;41.30;23.80;;;1.80;99.90;;;;;;5117259;28;20453;-70
2021/12/08 00:18:44;;;;;;;44.30;22.80;;;1.80;99.90;;;;;;5117650;28;20460;-70
2021/12/08 00:21:11;;;;;;;36.73;22.47;;;1.90;99.90;;;;;;5116825;28;20464;-69
2021/12/08 00:23:38;;;;;;;39.77;22.97;;;1.90;99.90;;;;;;5116556;28;20494;-69
2021/12/08 00:26:07;;;;;;;39.97;22.40;;;1.90;99.90;;;;;;5116537;28;20791;-68
2021/12/08 00:28:34;;;;;;;41.33;23.40;;;1.80;99.90;;;;;;5116583;28;20814;-67
2021/12/08 00:31:03;;;;;;;40.37;24.20;;;1.80;99.90;;;;;;5117174;28;20463;-69
2021/12/08 00:33:31;;;;;;;39.40;23.67;;;1.80;99.90;;;;;;5116231;28;20449;-69
2021/12/08 00:36:02;;;;;;;38.47;22.63;;;1.80;99.90;;;;;;5116194;28;20516;-69
2021/12/08 00:38:30;;;;;;;42.67;23.10;;;1.80;99.90;;;;;;5116644;28;20441;-69
2021/12/08 00:40:58;;;;;;;35.67;21.70;;;1.80;99.90;;;;;;5116304;28;20464;-68
2021/12/08 00:43:26;;;;;;;40.07;23.50;;;1.70;99.90;;;;;;5116237;28;20495;-70
2021/12/08 00:45:54;;;;;;;34.43;21.33;;;1.70;99.90;;;;;;5116352;28;20460;-68
2021/12/08 00:48:22;;;;;;;42.47;22.10;;;1.70;99.90;;;;;;5116353;28;20919;-69
2021/12/08 00:50:49;;;;;;;36.50;21.77;;;1.70;99.90;;;;;;5116841;28;20461;-69
2021/12/08 00:53:16;;;;;;;38.50;21.47;;;1.70;99.90;;;;;;5116148;28;20467;-69
2021/12/08 00:55:46;;;;;;;39.70;22.47;;;1.50;99.90;;;;;;5116309;28;20488;-69
2021/12/08 00:58:13;;;;;;;41.43;23.13;;;1.60;99.90;;;;;;5116118;28;20455;-69
2021/12/08 01:00:44;;;;;;;42.77;21.20;;;1.50;99.90;;;;;;5116105;28;20452;-69
2021/12/08 01:03:13;;;;;;;41.07;22.13;;;1.50;99.90;;;;;;5116113;28;20452;-69
2021/12/08 01:05:44;;;;;;;40.17;23.00;;;1.50;99.90;;;;;;5115965;28;20495;-69
2021/12/08 01:08:11;;;;;;;39.80;23.10;;;1.50;99.90;;;;;;5115783;28;20445;-69
2021/12/08 01:10:39;;;;;;;37.80;21.77;;;1.50;99.90;;;;;;5116454;28;20456;-69
2021/12/08 01:13:08;;;;;;;39.87;21.57;;;1.60;99.90;;;;;;5117099;28;20514;-69
2021/12/08 01:15:38;;;;;;;37.10;20.70;;;1.60;99.90;;;;;;5120479;28;20460;-69
2021/12/08 01:18:06;;;;;;;42.37;22.33;;;1.50;99.90;;;;;;5115937;28;20858;-69
2021/12/08 01:20:34;;;;;;;36.00;22.43;;;1.50;99.90;;;;;;5115974;28;20460;-69
2021/12/08 01:23:01;;;;;;;39.00;22.80;;;1.60;99.90;;;;;;5115835;28;20452;-69
2021/12/08 01:25:28;;;;;;;36.40;21.47;;;1.60;99.90;;;;;;5115203;28;20944;-68
2021/12/08 01:27:55;;;;;;;39.17;21.23;;;1.50;99.90;;;;;;5115625;28;20923;-68
2021/12/08 01:30:22;;;;;;;39.90;20.93;;;1.50;99.90;;;;;;5115173;28;20815;-67
2021/12/08 01:32:49;;;;;;;39.90;21.37;;;1.50;99.90;;;;;;5115940;28;20797;-67
2021/12/08 01:35:17;;;;;;;38.90;22.60;;;1.50;99.90;;;;;;5115505;28;20530;-68
2021/12/08 01:37:43;;;;;;;43.27;21.97;;;1.50;99.90;;;;;;5115763;28;20795;-68
2021/12/08 01:40:12;;;;;;;41.97;22.80;;;1.50;99.90;;;;;;5115685;28;20475;-68
2021/12/08 01:42:44;;;;;;;39.77;21.40;;;1.60;99.90;;;;;;5115427;28;20484;-69
2021/12/08 01:47:58;;;;;;;48.43;22.43;;;1.60;99.90;;;;;;5115538;28;20474;-68
2021/12/08 01:50:27;;;;;;;39.73;20.87;;;1.60;99.90;;;;;;5115613;28;20498;-68
2021/12/08 01:52:54;;;;;;;37.83;23.03;;;1.60;99.90;;;;;;5115108;28;20463;-68
2021/12/08 01:55:21;;;;;;;39.20;21.50;;;1.70;99.90;;;;;;5116182;28;20457;-69
2021/12/08 01:57:48;;;;;;;37.97;21.13;;;1.70;99.90;;;;;;5115001;28;20462;-66
2021/12/08 02:00:21;;;;;;;36.77;21.60;;;1.70;99.90;;;;;;5115175;28;20468;-68
2021/12/08 02:02:48;;;;;;;42.77;20.73;;;1.60;99.90;;;;;;5115184;28;20920;-68
2021/12/08 02:05:16;;;;;;;36.83;21.43;;;1.60;99.90;;;;;;5115592;28;20856;-68
2021/12/08 02:07:44;;;;;;;39.20;21.83;;;1.60;99.90;;;;;;5115009;28;20476;-68
2021/12/08 02:10:12;;;;;;;37.03;21.20;;;1.50;99.90;;;;;;5114845;28;20467;-69
2021/12/08 02:12:41;;;;;;;45.30;23.17;;;1.50;99.90;;;;;;5115613;28;20495;-68
2021/12/08 02:15:11;;;;;;;38.37;22.00;;;1.50;99.90;;;;;;5114886;28;20460;-68
2021/12/08 02:17:38;;;;;;;42.23;21.70;;;1.50;99.90;;;;;;5115123;28;20756;-68
2021/12/08 02:20:08;;;;;;;34.20;21.13;;;1.50;99.90;;;;;;5114764;28;20456;-67
2021/12/08 02:22:36;;;;;;;37.07;21.37;;;1.60;99.90;;;;;;5115768;28;20460;-68
2021/12/08 02:25:04;;;;;;;36.03;20.70;;;1.60;99.90;;;;;;5114564;28;20491;-69
2021/12/08 02:27:32;;;;;;;37.20;21.00;;;1.70;99.90;;;;;;5114647;28;20464;-68
2021/12/08 02:30:08;;;;;;;37.10;20.60;;;1.70;99.90;;;;;;5117224;28;20456;-68
2021/12/08 02:49:00;;;;;;;37.40;19.47;;;1.50;99.90;;;;;;5118725;28;20415;-68
2021/12/08 02:51:26;;;;;;;33.00;20.00;;;1.50;99.90;;;;;;5118944;28;20742;-68
2021/12/08 02:53:54;;;;;;;33.17;19.50;;;1.50;99.90;;;;;;5118785;28;20504;-68
2021/12/08 02:56:21;;;;;;;35.30;19.53;;;1.50;99.90;;;;;;5118529;28;20548;-67
2021/12/08 02:58:48;;;;;;;36.57;17.47;;;1.50;99.90;;;;;;5118751;28;20456;-69
2021/12/08 03:01:16;;;;;;;36.50;21.20;;;1.40;99.90;;;;;;5118275;28;20464;-68
2021/12/08 03:03:43;;;;;;;30.40;18.10;;;1.40;99.90;;;;;;5118396;28;20448;-68
2021/12/08 03:06:11;;;;;;;32.73;18.37;;;1.40;99.90;;;;;;5117987;28;20456;-68
2021/12/08 03:08:37;;;;;;;32.97;17.93;;;1.40;99.90;;;;;;5119366;28;20787;-69
2021/12/08 03:11:06;;;;;;;30.97;18.13;;;1.40;99.90;;;;;;5118122;28;20456;-69
2021/12/08 03:13:37;;;;;;;31.10;19.10;;;1.50;99.90;;;;;;5118187;28;20464;-69
2021/12/08 03:16:04;;;;;;;32.17;17.23;;;1.50;99.90;;;;;;5118149;28;20448;-69
2021/12/08 03:18:34;;;;;;;32.53;19.73;;;1.50;99.90;;;;;;5118450;28;20741;-69
2021/12/08 03:21:02;;;;;;;34.00;18.43;;;1.50;99.90;;;;;;5118491;28;20820;-69
2021/12/08 03:23:38;;;;;;;34.07;18.43;;;1.50;99.90;;;;;;5118035;28;20449;-68
2021/12/08 03:26:06;;;;;;;31.00;17.20;;;1.60;99.90;;;;;;5117743;28;20994;-68
2021/12/08 03:28:40;;;;;;;29.37;18.23;;;1.50;99.90;;;;;;5117947;28;20459;-69
2021/12/08 03:31:11;;;;;;;33.77;18.33;;;1.50;99.90;;;;;;5117770;28;20770;-68
2021/12/08 03:33:38;;;;;;;30.83;18.20;;;1.50;99.90;;;;;;5118305;28;20444;-68
2021/12/08 03:36:05;;;;;;;29.40;16.80;;;1.40;99.90;;;;;;5117991;28;20795;-68
2021/12/08 03:38:32;;;;;;;30.40;17.83;;;1.40;99.90;;;;;;5117647;28;20517;-68
2021/12/08 03:41:02;;;;;;;33.27;19.23;;;1.50;99.90;;;;;;5116463;28;20456;-68
2021/12/08 03:43:31;;;;;;;35.33;18.93;;;1.50;99.90;;;;;;5117641;28;20484;-68
2021/12/08 03:45:59;;;;;;;28.13;17.70;;;1.40;99.90;;;;;;5117584;28;20505;-68
2021/12/08 03:48:31;;;;;;;36.73;19.50;;;1.50;99.90;;;;;;5118651;28;20464;-68
2021/12/08 03:50:58;;;;;;;39.47;20.93;;;1.50;99.90;;;;;;5117748;28;20433;-68
2021/12/08 03:53:27;;;;;;;35.50;18.63;;;1.40;99.90;;;;;;5117949;28;20460;-69
2021/12/08 03:55:55;;;;;;;31.93;19.23;;;1.40;99.90;;;;;;5117271;28;20449;-69
2021/12/08 03:58:22;;;;;;;34.80;18.93;;;1.40;99.90;;;;;;5117946;28;20966;-69
2021/12/08 04:00:53;;;;;;;34.23;18.60;;;1.30;99.90;;;;;;5116925;28;20929;-68
2021/12/08 04:03:20;;;;;;;31.07;19.73;;;1.40;99.90;;;;;;5117431;28;20467;-68
2021/12/08 04:05:54;;;;;;;39.53;20.63;;;1.30;99.90;;;;;;5117018;28;20476;-68
2021/12/08 04:08:30;;;;;;;37.67;19.87;;;1.40;99.90;;;;;;5117255;28;20759;-68
2021/12/08 04:10:58;;;;;;;35.77;20.37;;;1.40;99.90;;;;;;5117127;28;20448;-69
2021/12/08 04:13:30;;;;;;;35.33;20.37;;;1.40;99.90;;;;;;5117207;28;20460;-68
2021/12/08 04:16:00;;;;;;;31.57;20.40;;;1.30;99.90;;;;;;5116470;28;20441;-68
2021/12/08 04:18:27;;;;;;;37.13;21.50;;;1.40;99.90;;;;;;5116873;28;20440;-68
2021/12/08 04:20:58;;;;;;;34.47;20.37;;;1.40;99.90;;;;;;5116934;28;20556;-68
2021/12/08 04:23:27;;;;;;;33.13;19.50;;;1.40;99.90;;;;;;5116771;28;20460;-69
2021/12/08 04:26:07;;;;;;;37.57;20.30;;;1.40;99.90;;;;;;5116572;28;20475;-69
2021/12/08 04:28:34;;;;;;;37.00;20.20;;;1.40;99.90;;;;;;5116685;28;20436;-68
2021/12/08 04:31:07;;;;;;;34.60;20.07;;;1.50;99.90;;;;;;5116700;28;20465;-68
2021/12/08 04:33:35;;;;;;;34.43;20.00;;;1.50;99.90;;;;;;5116716;28;20437;-68
2021/12/08 04:36:05;;;;;;;34.90;19.80;;;1.50;99.90;;;;;;5116298;28;20453;-68
2021/12/08 04:38:39;;;;;;;31.33;18.57;;;1.50;99.90;;;;;;5116957;28;20452;-68
2021/12/08 04:41:12;;;;;;;36.10;19.17;;;1.50;99.90;;;;;;5116465;28;20475;-68
2021/12/08 04:43:48;;;;;;;30.53;18.43;;;1.50;99.90;;;;;;5115883;28;20476;-68
2021/12/08 04:46:33;;;;;;;33.80;20.27;;;1.50;99.90;;;;;;5116145;28;20947;-68
2021/12/08 04:49:23;;;;;;;38.00;19.30;;;1.40;99.90;;;;;;5116292;28;20881;-68
2021/12/08 04:51:56;;;;;;;42.33;21.00;;;1.40;99.90;;;;;;5115831;28;20790;-68
2021/12/08 05:00:30;;;;;;;34.10;19.70;;;1.20;99.90;;;;;;5053949;28;20535;-69
2021/12/08 05:06:05;;;;;;;40.00;20.63;;;1.30;99.90;;;;;;5095513;27;20955;-69
2021/12/08 05:08:41;;;;;;;34.50;20.10;;;1.30;99.90;;;;;;5116036;28;20754;-69
2021/12/08 05:11:11;;;;;;;35.50;20.00;;;1.30;99.90;;;;;;5115835;28;20443;-69
2021/12/08 05:13:41;;;;;;;33.83;19.40;;;1.30;99.90;;;;;;5116530;28;20456;-69
2021/12/08 05:16:09;;;;;;;34.80;20.63;;;1.30;99.90;;;;;;5115611;28;20449;-69
2021/12/08 05:18:40;;;;;;;36.30;19.83;;;1.20;99.90;;;;;;5115693;28;20918;-70
2021/12/08 05:21:15;;;;;;;36.33;20.60;;;1.20;99.90;;;;;;5115728;28;20460;-68
2021/12/08 05:23:47;;;;;;;39.30;20.57;;;1.20;99.90;;;;;;5115805;28;20436;-69
2021/12/08 05:26:18;;;;;;;37.07;21.90;;;1.30;99.90;;;;;;5115656;28;21352;-69
2021/12/08 05:28:48;;;;;;;39.60;21.57;;;1.30;99.90;;;;;;5115708;28;20539;-69
2021/12/08 05:31:18;;;;;;;41.27;21.33;;;1.40;99.90;;;;;;5115139;28;20466;-69
2021/12/08 05:33:47;;;;;;;35.70;19.40;;;1.40;99.90;;;;;;5115435;28;20448;-69
2021/12/08 05:36:17;;;;;;;34.90;21.30;;;1.40;99.90;;;;;;5115502;28;20464;-69
2021/12/08 05:38:44;;;;;;;34.80;19.63;;;1.50;99.90;;;;;;5115662;28;20783;-68
2021/12/08 05:41:16;;;;;;;39.03;20.83;;;1.40;99.90;;;;;;5115372;28;20818;-68
2021/12/08 05:43:44;;;;;;;36.80;19.90;;;1.40;99.90;;;;;;5114737;28;20480;-68
2021/12/08 05:46:11;;;;;;;36.77;19.93;;;1.30;99.90;;;;;;5115185;28;20481;-69
2021/12/08 05:48:39;;;;;;;31.90;19.03;;;1.30;99.90;;;;;;5115304;28;20459;-69
2021/12/08 05:51:12;;;;;;;31.90;20.27;;;1.30;99.90;;;;;;5114810;28;20452;-68
2021/12/08 05:53:44;;;;;;;30.67;18.97;;;1.30;99.90;;;;;;5114759;28;20441;-68
2021/12/08 05:56:11;;;;;;;35.33;20.97;;;1.20;99.90;;;;;;5114940;28;20881;-68
2021/12/08 05:58:40;;;;;;;34.30;20.57;;;1.20;99.90;;;;;;5115362;28;20986;-68
2021/12/08 06:01:12;;;;;;;30.97;18.30;;;1.10;99.90;;;;;;5114904;28;20456;-68
2021/12/08 06:03:41;;;;;;;38.57;21.80;;;1.10;99.90;;;;;;5114185;28;20492;-68
2021/12/08 06:06:10;;;;;;;38.07;19.57;;;1.10;99.90;;;;;;5114712;28;20476;-68
2021/12/08 06:08:37;;;;;;;32.40;18.10;;;1.10;99.90;;;;;;5115128;28;20457;-68
2021/12/08 06:11:07;;;;;;;32.57;18.80;;;1.10;99.90;;;;;;5114266;28;20462;-68
2021/12/08 06:13:34;;;;;;;35.87;21.17;;;1.10;99.90;;;;;;5114612;28;20936;-68
2021/12/08 06:16:03;;;;;;;36.30;19.60;;;1.10;99.90;;;;;;5114889;28;20516;-68
2021/12/08 06:18:36;;;;;;;32.40;18.93;;;1.10;99.90;;;;;;5114933;28;20448;-69
2021/12/08 06:21:07;;;;;;;35.53;19.37;;;1.10;99.90;;;;;;5114956;28;20547;-69
2021/12/08 06:23:37;;;;;;;34.93;19.87;;;1.10;99.90;;;;;;5115212;28;20451;-69
2021/12/08 06:26:05;;;;;;;35.07;20.53;;;1.00;99.90;;;;;;5115208;28;20803;-68
2021/12/08 06:28:32;;;;;;;37.90;20.30;;;1.00;99.90;;;;;;5114291;28;20467;-69
2021/12/08 06:30:59;;;;;;;33.13;19.10;;;1.10;99.90;;;;;;5114262;28;20441;-68
2021/12/08 06:33:26;;;;;;;34.10;20.60;;;1.00;99.90;;;;;;5114477;28;20789;-69
2021/12/08 06:35:55;;;;;;;36.30;19.63;;;1.00;99.90;;;;;;5114120;28;20547;-69
2021/12/08 06:38:24;;;;;;;32.57;20.17;;;1.10;99.90;;;;;;5114317;28;20452;-68
2021/12/08 06:40:56;;;;;;;39.87;20.80;;;1.10;99.90;;;;;;5114410;28;20560;-69
2021/12/08 06:43:27;;;;;;;34.20;18.97;;;1.10;99.90;;;;;;5114650;28;20483;-68
2021/12/08 06:45:57;;;;;;;38.13;20.77;;;1.00;99.90;;;;;;5114983;28;20468;-69
2021/12/08 06:48:27;;;;;;;35.10;20.80;;;1.00;99.90;;;;;;5114829;28;20456;-68
2021/12/08 06:50:57;;;;;;;36.83;22.20;;;1.00;99.90;;;;;;5114704;28;20829;-68
2021/12/08 06:53:25;;;;;;;38.30;21.83;;;1.00;99.90;;;;;;5114593;28;20742;-69
2021/12/08 06:55:56;;;;;;;39.20;20.77;;;0.90;99.90;;;;;;5114695;28;20531;-70
2021/12/08 06:58:29;;;;;;;39.20;22.70;;;1.00;99.90;;;;;;5114471;28;20893;-70
2021/12/08 07:01:12;;;;;;;37.50;19.80;;;1.00;99.90;;;;;;5115056;28;20459;-69
2021/12/08 07:03:46;;;;;;;39.73;20.57;;;1.00;99.90;;;;;;5114465;28;20441;-69
2021/12/08 07:06:41;;;;;;;33.80;20.30;;;1.00;99.90;;;;;;5114003;28;20460;-69
2021/12/08 07:09:10;;;;;;;45.07;20.83;;;1.00;99.90;;;;;;5114393;28;20459;-70
2021/12/08 07:11:40;;;;;;;41.83;21.63;;;1.10;99.90;;;;;;5114271;28;20874;-68
2021/12/08 07:14:08;;;;;;;42.10;20.87;;;1.10;99.90;;;;;;5114560;28;20513;-68
2021/12/08 07:16:41;;;;;;;39.70;22.73;;;1.10;99.90;;;;;;5117142;28;20455;-68
2021/12/08 07:19:13;;;;;;;39.63;22.87;;;1.10;99.90;;;;;;5118305;28;20777;-68
2021/12/08 07:21:44;;;;;;;37.57;19.80;;;1.10;99.90;;;;;;5117862;28;20479;-70
2021/12/08 07:24:15;;;;;;;40.50;19.93;;;1.10;99.90;;;;;;5118393;28;20467;-69
2021/12/08 07:26:47;;;;;;;46.00;22.10;;;1.10;99.90;;;;;;5117913;28;20456;-70
2021/12/08 07:29:18;;;;;;;39.97;22.20;;;1.20;99.90;;;;;;5117969;28;20441;-70
2021/12/08 07:31:48;;;;;;;46.97;21.63;;;1.20;99.90;;;;;;5117771;28;20437;-68
2021/12/08 07:34:19;;;;;;;39.47;22.67;;;1.20;99.90;;;;;;5117936;28;20781;-69
2021/12/08 07:36:58;;;;;;;37.13;20.80;;;1.20;99.90;;;;;;5117643;28;20456;-69
2021/12/08 07:39:28;;;;;;;41.23;20.47;;;1.20;99.90;;;;;;5117689;28;20440;-69
2021/12/08 07:42:02;;;;;;;42.67;21.13;;;1.30;99.90;;;;;;5117221;28;20460;-69
2021/12/08 07:44:29;;;;;;;37.90;20.93;;;1.30;99.90;;;;;;5117405;28;20472;-69
2021/12/08 07:47:00;;;;;;;42.67;23.10;;;1.30;99.90;;;;;;5117159;28;20485;-69
2021/12/08 07:49:36;;;;;;;38.93;22.17;;;1.30;99.90;;;;;;5117511;28;20512;-68
2021/12/08 07:52:12;;;;;;;42.47;22.33;;;1.30;99.90;;;;;;5119819;28;20877;-68
2021/12/08 07:54:41;;;;;;;45.83;22.37;;;1.30;99.90;;;;;;5119119;28;20436;-70
2021/12/08 07:57:13;;;;;;;42.33;22.17;;;1.30;99.90;;;;;;5118178;28;20448;-69
2021/12/08 07:59:43;;;;;;;38.77;21.30;;;1.40;99.90;;;;;;5117166;28;20448;-69
2021/12/08 08:02:11;;;;;;;41.63;21.13;;;1.40;99.90;;;;;;5117018;28;20452;-69
2021/12/08 08:04:40;;;;;;;43.77;22.23;;;1.30;99.90;;;;;;5117155;28;20563;-69
2021/12/08 08:07:08;;;;;;;43.07;22.80;;;1.30;99.90;;;;;;5117019;28;20488;-69
2021/12/08 08:09:40;;;;;;;42.13;23.10;;;1.30;99.90;;;;;;5117316;28;20456;-69
2021/12/08 08:12:16;;;;;;;42.97;22.93;;;1.30;99.90;;;;;;5117188;28;20892;-68
2021/12/08 08:14:49;;;;;;;41.37;21.23;;;1.30;99.90;;;;;;5117194;27;20460;-68
2021/12/08 08:17:22;;;;;;;45.47;23.10;;;1.30;99.90;;;;;;5116847;28;20440;-69
2021/12/08 08:19:50;;;;;;;47.30;23.73;;;1.30;99.90;;;;;;5116472;28;20451;-68
2021/12/08 08:22:22;;;;;;;48.47;23.10;;;1.40;99.90;;;;;;5116636;28;20456;-69
2021/12/08 08:24:51;;;;;;;44.20;22.00;;;1.40;99.90;;;;;;5116530;28;20532;-69
2021/12/08 08:27:20;;;;;;;45.10;21.77;;;1.50;99.90;;;;;;5115737;28;20485;-69
2021/12/08 08:29:48;;;;;;;41.80;23.00;;;1.50;99.90;;;;;;5116657;28;20474;-69
2021/12/08 08:32:22;;;;;;;43.20;20.47;;;1.60;99.90;;;;;;5116453;28;20969;-69
2021/12/08 08:34:52;;;;;;;40.93;22.10;;;1.60;99.90;;;;;;5117616;28;20802;-69
2021/12/08 08:37:20;;;;;;;42.40;21.57;;;1.60;99.90;;;;;;5117028;28;20456;-70
2021/12/08 08:39:51;;;;;;;38.60;20.80;;;1.70;99.90;;;;;;5116503;28;20452;-69
2021/12/08 08:42:22;;;;;;;43.50;19.77;;;1.70;99.90;;;;;;5116324;28;20440;-69
2021/12/08 08:44:53;;;;;;;46.63;22.03;;;1.80;99.90;;;;;;5116492;28;20448;-68
2021/12/08 08:47:24;;;;;;;46.00;22.00;;;1.80;99.90;;;;;;5116753;28;20464;-70
2021/12/08 08:49:52;;;;;;;47.20;22.60;;;1.90;99.90;;;;;;5116562;28;20745;-70
2021/12/08 08:52:24;;;;;;;38.07;21.90;;;1.90;99.90;;;;;;5118197;28;20452;-69
2021/12/08 08:54:53;;;;;;;41.20;21.00;;;1.80;99.90;;;;;;5118890;28;20451;-69
2021/12/08 08:57:26;;;;;;;43.60;22.50;;;1.80;99.90;;;;;;5117574;28;20456;-69
2021/12/08 09:00:03;;;;;;;45.40;23.23;;;1.90;99.90;;;;;;5117488;28;20451;-69
2021/12/08 09:02:38;;;;;;;38.63;20.90;;;1.80;99.90;;;;;;5117621;28;20440;-69
2021/12/08 09:05:09;;;;;;;47.43;21.63;;;1.90;99.90;;;;;;5116776;28;20988;-68
2021/12/08 09:07:40;;;;;;;44.73;21.90;;;2.00;99.90;;;;;;5116351;28;20476;-68
2021/12/08 09:10:12;;;;;;;42.87;20.97;;;2.00;99.90;;;;;;5116471;27;20441;-70
2021/12/08 09:12:43;;;;;;;40.43;20.40;;;2.00;99.90;;;;;;5116120;28;20780;-69
2021/12/08 09:15:13;;;;;;;42.57;20.07;;;2.10;99.90;;;;;;5116184;28;20869;-69
2021/12/08 09:17:44;;;;;;;41.53;20.93;;;2.00;99.90;;;;;;5116269;28;20468;-69
2021/12/08 09:20:20;;;;;;;36.53;19.80;;;2.00;99.90;;;;;;5116470;28;20441;-69
2021/12/08 09:22:57;;;;;;;37.33;19.23;;;2.10;99.90;;;;;;5116142;28;20444;-69
2021/12/08 09:25:30;;;;;;;42.70;22.57;;;2.10;99.90;;;;;;5115807;28;20451;-70
2021/12/08 09:28:02;;;;;;;39.47;20.10;;;2.00;99.90;;;;;;5115858;28;20500;-70
2021/12/08 09:30:34;;;;;;;36.53;20.40;;;2.00;99.90;;;;;;5116029;28;20814;-70
2021/12/08 09:33:15;;;;;;;39.70;19.73;;;2.10;99.90;;;;;;5116194;28;20449;-70
2021/12/08 09:35:46;;;;;;;37.97;20.93;;;2.10;99.90;;;;;;5115787;28;20920;-69
2021/12/08 09:38:18;;;;;;;40.83;20.33;;;2.10;99.90;;;;;;5115772;28;20445;-69
2021/12/08 09:40:49;;;;;;;45.27;21.80;;;2.10;99.90;;;;;;5115277;28;20824;-69
2021/12/08 09:43:21;;;;;;;41.30;21.63;;;2.10;99.90;;;;;;5115328;28;20486;-69
2021/12/08 09:45:51;;;;;;;44.20;20.20;;;2.10;99.90;;;;;;5115431;28;20479;-69
2021/12/08 09:48:18;;;;;;;40.93;22.47;;;2.10;99.90;;;;;;5115301;28;20456;-69
2021/12/08 09:50:46;;;;;;;40.30;20.00;;;2.10;99.90;;;;;;5114782;28;20543;-69
2021/12/08 09:53:16;;;;;;;47.23;23.57;;;2.10;99.90;;;;;;5114809;28;20463;-69
2021/12/08 09:55:43;;;;;;;48.57;21.37;;;2.00;99.90;;;;;;5114640;28;20482;-69
2021/12/08 09:58:10;;;;;;;41.30;23.03;;;2.00;99.90;;;;;;5115408;28;20467;-69
2021/12/08 10:00:41;;;;;;;40.23;21.53;;;2.00;99.90;;;;;;5114697;28;20484;-69
2021/12/08 10:03:12;;;;;;;41.93;21.03;;;2.00;99.90;;;;;;5115005;28;20467;-70
2021/12/08 10:05:41;;;;;;;46.90;22.63;;;2.00;99.90;;;;;;5114731;27;20498;-69
2021/12/08 10:08:10;;;;;;;43.10;21.30;;;2.10;99.90;;;;;;5114910;28;20780;-70
2021/12/08 10:10:40;;;;;;;37.90;20.40;;;2.10;99.90;;;;;;5114160;28;20902;-69
2021/12/08 10:13:08;;;;;;;41.90;21.80;;;2.20;99.90;;;;;;5114503;28;20448;-70
2021/12/08 10:15:35;;;;;;;41.40;21.47;;;2.30;99.90;;;;;;5114856;28;20456;-70
2021/12/08 10:18:06;;;;;;;45.57;23.20;;;2.30;99.90;;;;;;5114712;28;20456;-68
2021/12/08 10:20:35;;;;;;;40.73;21.47;;;2.30;99.90;;;;;;5115030;28;20440;-70
2021/12/08 10:23:16;;;;;;;40.73;22.33;;;2.40;99.90;;;;;;5115375;28;20462;-69
2021/12/08 10:25:48;;;;;;;39.33;22.20;;;2.50;99.90;;;;;;5114928;28;20465;-69
2021/12/08 10:28:17;;;;;;;43.60;22.47;;;2.60;99.90;;;;;;5115142;28;20478;-69
2021/12/08 10:30:53;;;;;;;46.27;23.53;;;2.70;99.90;;;;;;5114652;28;20460;-69
2021/12/08 10:33:58;;;;;;;43.80;21.57;;;2.80;99.90;;;;;;5114669;28;20453;-68
2021/12/08 10:36:43;;;;;;;44.30;22.00;;;3.00;99.90;;;;;;5114190;28;20464;-69
2021/12/08 10:39:14;;;;;;;40.90;20.70;;;2.90;99.90;;;;;;5114384;28;20523;-69
2021/12/08 10:41:53;;;;;;;44.77;22.40;;;2.90;99.90;;;;;;5114543;28;20460;-69
2021/12/08 10:44:23;;;;;;;41.63;21.73;;;2.90;99.90;;;;;;5114053;28;20491;-69
2021/12/08 10:47:02;;;;;;;41.50;22.00;;;2.90;99.90;;;;;;5114429;28;20499;-68
2021/12/08 10:55:01;;;;;;;42.50;22.30;;;3.10;99.90;;;;;;5118242;28;20549;-69
2021/12/08 10:57:34;;;;;;;38.60;21.20;;;3.10;99.90;;;;;;5118096;28;20452;-68
2021/12/08 11:00:08;;;;;;;37.57;21.13;;;3.10;99.90;;;;;;5118250;28;20436;-70
2021/12/08 11:02:45;;;;;;;39.27;21.90;;;3.20;99.90;;;;;;5117775;28;20499;-69
2021/12/08 11:06:00;;;;;;;43.60;24.20;;;3.10;99.90;;;;;;5117178;28;20436;-69
2021/12/08 11:08:31;;;;;;;49.07;21.70;;;3.10;99.90;;;;;;5055362;28;20506;-68
2021/12/08 11:11:01;;;;;;;40.93;21.90;;;3.10;99.90;;;;;;5055493;28;20539;-69
2021/12/08 11:13:30;;;;;;;60.73;26.57;;;3.10;99.90;;;;;;5086188;28;20559;-69
2021/12/08 11:16:15;;;;;;;49.83;25.27;;;3.20;99.90;;;;;;5118060;28;20445;-69
2021/12/08 11:18:44;;;;;;;38.07;20.87;;;3.20;99.90;;;;;;5118741;28;20439;-69
2021/12/08 11:21:18;;;;;;;42.60;21.97;;;3.20;99.90;;;;;;5118028;28;20895;-69
2021/12/08 11:23:48;;;;;;;46.70;22.93;;;3.20;99.90;;;;;;5117854;28;20540;-69
2021/12/08 11:26:26;;;;;;;41.07;20.00;;;3.10;99.90;;;;;;5117881;28;20436;-69
2021/12/08 11:28:59;;;;;;;43.23;21.60;;;3.20;99.90;;;;;;5117422;28;20455;-69
2021/12/08 11:31:29;;;;;;;42.17;22.30;;;3.20;99.90;;;;;;5117545;28;20437;-69
2021/12/08 11:34:00;;;;;;;35.57;20.13;;;3.30;99.90;;;;;;5117409;28;20456;-69
2021/12/08 11:36:32;;;;;;;39.20;20.97;;;3.40;99.90;;;;;;5117792;28;20483;-69
2021/12/08 11:39:07;;;;;;;41.50;21.87;;;3.50;99.90;;;;;;5117443;28;20441;-69
2021/12/08 11:41:36;;;;;;;36.43;19.23;;;3.40;99.90;;;;;;5117353;28;20436;-69
2021/12/08 11:44:07;;;;;;;40.27;22.00;;;3.40;99.90;;;;;;5116686;28;20484;-68
2021/12/08 11:46:40;;;;;;;38.20;20.90;;;3.40;99.90;;;;;;5116990;27;20479;-69
2021/12/08 11:49:09;;;;;;;41.13;22.03;;;3.40;99.90;;;;;;5116754;28;20765;-69
2021/12/08 11:51:59;;;;;;;39.07;20.80;;;3.50;99.90;;;;;;5120374;28;20783;-68
2021/12/08 11:54:34;;;;;;;44.47;20.93;;;3.40;99.90;;;;;;5116084;27;20449;-69
2021/12/08 11:57:11;;;;;;;38.60;21.10;;;3.30;99.90;;;;;;5117229;28;20436;-69
2021/12/08 12:00:00;;;;;;;41.27;20.10;;;3.30;99.90;;;;;;5117417;28;20443;-68
2021/12/08 12:02:33;;;;;;;42.80;21.30;;;3.20;99.90;;;;;;5115662;28;20908;-69
2021/12/08 12:05:01;;;;;;;38.10;20.97;;;3.20;99.90;;;;;;5117262;28;20841;-69
2021/12/08 12:07:30;;;;;;;45.17;20.47;;;3.20;99.90;;;;;;5117548;28;20480;-69
2021/12/08 12:10:00;;;;;;;35.80;20.07;;;3.20;99.90;;;;;;5117276;28;20614;-68
2021/12/08 12:12:27;;;;;;;34.10;18.43;;;3.20;99.90;;;;;;5117383;28;20441;-69
2021/12/08 12:14:54;;;;;;;40.20;20.00;;;3.20;99.90;;;;;;5117430;28;20718;-68
2021/12/08 12:17:21;;;;;;;38.73;20.70;;;3.20;99.90;;;;;;5117150;28;20752;-68
2021/12/08 12:20:03;;;;;;;32.23;19.00;;;3.30;99.90;;;;;;5117344;28;20456;-67
2021/12/08 12:22:41;;;;;;;36.90;20.53;;;3.30;99.90;;;;;;5116735;28;20950;-68
2021/12/08 12:25:18;;;;;;;39.03;20.63;;;3.30;99.90;;;;;;5117108;28;20455;-67
2021/12/08 12:27:55;;;;;;;45.33;21.40;;;3.30;99.90;;;;;;5116389;28;20519;-67
2021/12/08 12:30:38;;;;;;;46.07;20.60;;;3.40;99.90;;;;;;5117209;28;20440;-67
2021/12/08 12:33:16;;;;;;;38.20;21.23;;;3.40;99.90;;;;;;5116891;28;20786;-68
2021/12/08 12:35:49;;;;;;;42.43;21.40;;;3.50;99.90;;;;;;5116637;28;20437;-68
2021/12/08 12:38:16;;;;;;;42.80;20.80;;;3.50;99.90;;;;;;5116803;28;20432;-68
2021/12/08 12:40:48;;;;;;;39.40;21.53;;;3.50;99.90;;;;;;5115889;28;20785;-68
2021/12/08 12:43:25;;;;;;;34.57;20.83;;;3.50;99.90;;;;;;5115917;28;20596;-69
2021/12/08 12:46:03;;;;;;;40.50;20.73;;;3.50;99.90;;;;;;5117596;28;20482;-67
2021/12/08 12:48:31;;;;;;;44.30;20.83;;;3.50;99.90;;;;;;5116235;28;20464;-67
2021/12/08 12:51:01;;;;;;;35.73;20.17;;;3.50;99.90;;;;;;5115820;28;20460;-68
2021/12/08 12:53:33;;;;;;;38.53;20.23;;;3.50;99.90;;;;;;5115885;28;20739;-68
2021/12/08 12:56:02;;;;;;;37.57;19.57;;;3.50;99.90;;;;;;5115166;28;20945;-67
2021/12/08 12:58:52;;;;;;;39.87;19.13;;;3.50;99.90;;;;;;5115279;28;20900;-68
2021/12/08 13:01:26;;;;;;;38.77;19.07;;;3.40;99.90;;;;;;5115546;28;20471;-68
2021/12/08 13:03:59;;;;;;;42.00;21.63;;;3.40;99.90;;;;;;5116258;28;20532;-69
2021/12/08 13:06:47;;;;;;;43.27;20.47;;;3.40;99.90;;;;;;5115516;28;20493;-68
2021/12/08 13:09:40;;;;;;;37.77;21.00;;;3.30;99.90;;;;;;5114992;28;20437;-67
2021/12/08 13:12:11;;;;;;;41.13;20.97;;;3.20;99.90;;;;;;5115203;28;20567;-67
2021/12/08 13:14:38;;;;;;;35.80;19.57;;;3.30;99.90;;;;;;5115243;28;20444;-67
2021/12/08 13:17:26;;;;;;;35.67;20.00;;;3.30;99.90;;;;;;5115409;28;20485;-67
2021/12/08 13:19:55;;;;;;;39.90;19.30;;;3.40;99.90;;;;;;5108716;28;20505;-68
2021/12/08 13:22:50;;;;;;;40.33;20.50;;;3.30;99.90;;;;;;5114862;28;20452;-68
2021/12/08 13:25:40;;;;;;;38.67;20.40;;;3.20;99.90;;;;;;5114985;28;20542;-68
2021/12/08 13:28:20;;;;;;;42.63;21.83;;;3.20;99.90;;;;;;5115245;28;20819;-68
2021/12/08 13:30:51;;;;;;;39.67;20.70;;;3.10;99.90;;;;;;5115212;28;20446;-68
2021/12/08 13:33:31;;;;;;;39.03;18.93;;;3.20;99.90;;;;;;5114431;28;20452;-68